createdAt,value
2023-03-25T00:02:23.299Z,1.40
2023-03-25T00:04:51.755Z,1.30
2023-03-25T00:07:21.265Z,1.10
2023-03-25T00:09:48.030Z,1.23
2023-03-25T00:12:16.962Z,1.07
2023-03-25T00:14:54.186Z,1.27
2023-03-25T00:17:22.693Z,1.13
2023-03-25T00:19:52.334Z,1.17
2023-03-25T00:22:19.235Z,0.97
2023-03-25T00:24:45.847Z,1.00
2023-03-25T00:27:14.207Z,1.13
2023-03-25T00:29:42.080Z,1.20
2023-03-25T00:32:08.947Z,1.40
2023-03-25T00:34:41.586Z,1.20
2023-03-25T00:37:09.226Z,1.20
2023-03-25T00:39:37.434Z,1.23
2023-03-25T00:42:04.368Z,1.13
2023-03-25T00:44:32.398Z,1.10
2023-03-25T00:46:58.985Z,1.40
2023-03-25T00:49:28.476Z,1.00
2023-03-25T00:51:56.509Z,1.20
2023-03-25T00:54:23.934Z,1.00
2023-03-25T00:56:52.860Z,1.10
2023-03-25T00:59:19.609Z,1.00
2023-03-25T01:01:46.265Z,1.33
2023-03-25T01:04:13.192Z,1.50
2023-03-25T01:06:43.725Z,1.23
2023-03-25T01:09:13.674Z,0.97
2023-03-25T01:11:43.037Z,1.10
2023-03-25T01:14:17.899Z,1.17
2023-03-25T01:16:45.405Z,1.13
2023-03-25T01:19:13.240Z,1.30
2023-03-25T01:21:39.941Z,1.10
2023-03-25T01:24:07.956Z,1.30
2023-03-25T01:26:34.826Z,1.00
2023-03-25T01:29:01.641Z,1.10
2023-03-25T01:31:30.048Z,1.03
2023-03-25T01:33:57.830Z,1.00
2023-03-25T01:36:31.019Z,1.43
2023-03-25T01:38:59.408Z,0.83
2023-03-25T01:41:35.732Z,0.90
2023-03-25T01:44:14.939Z,0.90
2023-03-25T01:46:47.009Z,1.30
2023-03-25T01:49:21.321Z,1.20
2023-03-25T01:52:13.125Z,1.30
2023-03-25T01:54:40.787Z,0.87
2023-03-25T01:57:09.310Z,0.97
2023-03-25T01:59:37.828Z,1.00
2023-03-25T02:02:08.984Z,0.90
2023-03-25T02:04:39.408Z,0.70
2023-03-25T02:07:10.196Z,0.70
2023-03-25T02:09:37.945Z,1.10
2023-03-25T02:12:04.873Z,1.03
2023-03-25T02:14:35.890Z,0.90
2023-03-25T02:17:21.885Z,0.80
2023-03-25T02:20:32.588Z,1.10
2023-03-25T02:23:22.000Z,1.10
2023-03-25T02:26:06.543Z,1.00
2023-03-25T02:29:05.063Z,0.90
2023-03-25T02:31:34.699Z,0.90
2023-03-25T02:34:14.814Z,0.70
2023-03-25T02:37:12.240Z,1.07
2023-03-25T02:39:47.822Z,1.07
2023-03-25T02:42:32.983Z,0.77
2023-03-25T02:45:05.703Z,1.13
2023-03-25T02:47:37.276Z,1.10
2023-03-25T02:50:24.403Z,0.73
2023-03-25T02:52:54.361Z,1.17
2023-03-25T02:55:22.854Z,0.90
2023-03-25T02:57:54.567Z,1.20
2023-03-25T03:00:26.676Z,1.20
2023-03-25T03:03:03.656Z,0.80
2023-03-25T03:05:33.681Z,0.80
2023-03-25T03:08:18.887Z,0.97
2023-03-25T03:10:48.626Z,0.83
2023-03-25T03:13:29.321Z,0.80
2023-03-25T03:16:33.077Z,0.70
2023-03-25T03:19:07.327Z,0.80
2023-03-25T03:22:00.999Z,1.00
2023-03-25T03:24:36.387Z,0.70
2023-03-25T03:27:25.048Z,0.60
2023-03-25T03:30:00.244Z,0.80
2023-03-25T03:32:37.482Z,0.60
2023-03-25T03:35:19.295Z,0.80
2023-03-25T03:37:58.003Z,1.00
2023-03-25T03:40:27.170Z,0.90
2023-03-25T03:43:01.520Z,0.93
2023-03-25T03:45:36.675Z,0.83
2023-03-25T03:48:09.381Z,0.63
2023-03-25T03:50:41.561Z,0.93
2023-03-25T03:53:33.148Z,0.90
2023-03-25T03:56:13.037Z,0.77
2023-03-25T03:58:42.681Z,0.70
2023-03-25T04:01:15.354Z,0.60
2023-03-25T04:03:45.002Z,0.70
2023-03-25T04:06:22.006Z,0.70
2023-03-25T04:08:58.813Z,0.57
2023-03-25T04:11:40.221Z,0.60
2023-03-25T04:14:08.925Z,0.77
2023-03-25T04:16:37.485Z,0.87
2023-03-25T04:19:05.939Z,0.87
2023-03-25T04:21:33.141Z,0.63
2023-03-25T04:24:01.478Z,0.60
2023-03-25T04:26:33.796Z,0.80
2023-03-25T04:29:01.714Z,0.97
2023-03-25T04:31:30.984Z,0.70
2023-03-25T04:33:59.327Z,0.77
2023-03-25T04:36:33.443Z,0.83
2023-03-25T04:39:00.009Z,0.93
2023-03-25T04:41:28.525Z,0.80
2023-03-25T04:43:55.302Z,0.50
2023-03-25T04:46:21.993Z,0.60
2023-03-25T04:48:48.655Z,0.73
2023-03-25T04:51:16.026Z,0.80
2023-03-25T04:53:42.857Z,0.43
2023-03-25T04:56:16.052Z,0.70
2023-03-25T04:58:46.178Z,0.70
2023-03-25T05:01:23.523Z,0.60
2023-03-25T05:03:50.448Z,0.93
2023-03-25T05:06:17.962Z,0.40
2023-03-25T05:08:44.588Z,0.50
2023-03-25T05:11:11.210Z,0.47
2023-03-25T05:13:37.819Z,0.80
2023-03-25T05:16:04.808Z,0.90
2023-03-25T05:18:31.889Z,0.70
2023-03-25T05:21:00.780Z,0.50
2023-03-25T05:23:27.339Z,0.70
2023-03-25T05:25:54.101Z,0.77
2023-03-25T05:28:20.872Z,0.50
2023-03-25T05:30:47.949Z,0.50
2023-03-25T05:33:16.840Z,0.50
2023-03-25T05:35:44.919Z,0.50
2023-03-25T05:38:13.350Z,0.63
2023-03-25T05:40:40.329Z,0.70
2023-03-25T05:43:07.824Z,0.80
2023-03-25T05:45:37.781Z,0.60
2023-03-25T05:48:04.977Z,0.50
2023-03-25T05:50:31.684Z,0.70
2023-03-25T05:52:59.702Z,0.63
2023-03-25T05:55:27.440Z,0.70
2023-03-25T05:57:54.148Z,0.70
2023-03-25T06:00:24.320Z,0.50
2023-03-25T06:02:51.990Z,0.50
2023-03-25T06:05:23.349Z,0.60
2023-03-25T06:07:50.551Z,0.60
2023-03-25T06:10:18.327Z,0.50
2023-03-25T06:12:46.807Z,0.60
2023-03-25T06:15:15.464Z,0.50
2023-03-25T06:17:42.527Z,0.67
2023-03-25T06:20:12.444Z,0.70
2023-03-25T06:22:44.076Z,0.70
2023-03-25T06:25:13.672Z,0.50
2023-03-25T06:27:42.462Z,0.50
2023-03-25T06:30:15.587Z,0.83
2023-03-25T06:32:42.287Z,0.70
2023-03-25T06:35:11.014Z,0.87
2023-03-25T06:37:39.036Z,0.80
2023-03-25T06:40:06.302Z,0.43
2023-03-25T06:42:33.063Z,0.57
2023-03-25T06:44:59.680Z,0.50
2023-03-25T06:47:26.272Z,0.47
2023-03-25T06:49:53.013Z,0.60
2023-03-25T06:52:19.630Z,0.50
2023-03-25T06:54:46.278Z,0.80
2023-03-25T06:57:12.892Z,0.60
2023-03-25T06:59:39.513Z,0.30
2023-03-25T07:02:06.123Z,0.60
2023-03-25T07:04:32.726Z,0.53
2023-03-25T07:06:59.257Z,0.70
2023-03-25T07:09:25.961Z,0.93
2023-03-25T07:11:52.522Z,0.60
2023-03-25T07:14:19.095Z,0.50
2023-03-25T07:16:45.884Z,0.70
2023-03-25T07:19:12.478Z,0.57
2023-03-25T07:21:39.012Z,0.50
2023-03-25T07:24:05.867Z,0.80
2023-03-25T07:26:32.880Z,0.87
2023-03-25T07:28:59.507Z,0.60
2023-03-25T07:31:26.162Z,0.47
2023-03-25T07:33:52.783Z,0.63
2023-03-25T07:36:21.824Z,0.60
2023-03-25T07:38:48.408Z,0.60
2023-03-25T07:41:15.250Z,0.63
2023-03-25T07:43:43.070Z,0.97
2023-03-25T07:46:09.715Z,0.60
2023-03-25T07:48:37.042Z,0.90
2023-03-25T07:51:03.948Z,0.70
2023-03-25T07:53:30.576Z,0.50
2023-03-25T07:55:57.382Z,0.50
2023-03-25T07:58:23.952Z,0.53
2023-03-25T08:00:50.685Z,0.40
2023-03-25T08:03:17.354Z,0.50
2023-03-25T08:05:46.969Z,0.60
2023-03-25T08:08:14.429Z,0.50
2023-03-25T08:10:46.415Z,0.57
2023-03-25T08:13:13.691Z,0.70
2023-03-25T08:15:40.700Z,0.90
2023-03-25T08:18:07.701Z,1.00
2023-03-25T08:20:35.695Z,0.70
2023-03-25T08:23:02.976Z,0.70
2023-03-25T08:25:30.807Z,0.70
2023-03-25T08:27:57.619Z,1.03
2023-03-25T08:30:24.521Z,0.60
2023-03-25T08:32:54.148Z,0.50
2023-03-25T08:35:22.334Z,0.73
2023-03-25T08:37:48.948Z,0.80
2023-03-25T08:40:18.798Z,0.60
2023-03-25T08:42:46.607Z,0.47
2023-03-25T08:45:15.338Z,0.63
2023-03-25T08:47:43.020Z,0.43
2023-03-25T08:50:10.067Z,0.60
2023-03-25T08:52:36.603Z,0.80
2023-03-25T08:55:04.458Z,0.70
2023-03-25T08:57:31.052Z,0.50
2023-03-25T08:59:57.641Z,0.50
2023-03-25T09:02:24.425Z,0.60
2023-03-25T09:04:51.201Z,0.40
2023-03-25T09:07:19.679Z,0.47
2023-03-25T09:09:46.733Z,0.40
2023-03-25T09:12:13.479Z,0.70
2023-03-25T09:14:40.185Z,0.30
2023-03-25T09:17:07.113Z,0.40
2023-03-25T09:19:35.079Z,0.50
2023-03-25T09:22:01.682Z,0.43
2023-03-25T09:24:28.251Z,0.60
2023-03-25T09:26:54.801Z,0.37
2023-03-25T09:29:21.386Z,0.33
2023-03-25T09:31:48.592Z,0.60
2023-03-25T09:34:16.155Z,0.40
2023-03-25T09:36:42.996Z,0.40
2023-03-25T09:39:09.643Z,0.30
2023-03-25T09:42:21.236Z,0.53
2023-03-25T09:44:50.882Z,0.33
2023-03-25T09:47:20.563Z,0.37
2023-03-25T09:49:53.654Z,0.50
2023-03-25T09:52:25.654Z,0.30
2023-03-25T09:54:57.138Z,0.57
2023-03-25T09:57:30.578Z,0.60
2023-03-25T09:59:59.362Z,0.50
2023-03-25T10:03:07.765Z,0.80
2023-03-25T10:05:49.964Z,0.30
2023-03-25T10:08:52.067Z,0.30
2023-03-25T10:11:29.369Z,0.53
2023-03-25T10:14:03.381Z,0.30
2023-03-25T10:16:38.812Z,0.50
2023-03-25T10:19:31.851Z,0.40
2023-03-25T10:22:04.420Z,0.50
2023-03-25T10:24:53.630Z,0.40
2023-03-25T10:27:37.063Z,0.50
2023-03-25T10:30:10.371Z,0.40
2023-03-25T10:32:40.220Z,0.30
2023-03-25T10:35:23.924Z,0.50
2023-03-25T10:37:53.666Z,0.70
2023-03-25T10:40:44.517Z,0.40
2023-03-25T10:43:39.529Z,0.40
2023-03-25T10:46:32.355Z,0.40
2023-03-25T10:48:58.976Z,0.40
2023-03-25T10:51:33.537Z,0.50
2023-03-25T10:54:00.676Z,0.40
2023-03-25T10:56:35.282Z,0.43
2023-03-25T10:59:07.467Z,0.53
2023-03-25T11:01:38.686Z,2.40
2023-03-25T11:04:08.114Z,3.07
2023-03-25T11:06:39.772Z,4.07
2023-03-25T11:09:23.494Z,2.83
2023-03-25T11:11:50.897Z,3.23
2023-03-25T11:14:23.520Z,2.57
2023-03-25T11:17:15.010Z,2.27
2023-03-25T11:19:52.616Z,2.60
2023-03-25T11:22:24.583Z,2.13
2023-03-25T11:24:57.671Z,2.57
2023-03-25T11:27:28.281Z,2.47
2023-03-25T11:30:06.599Z,2.60
2023-03-25T11:32:41.957Z,2.00
2023-03-25T11:35:22.207Z,2.47
2023-03-25T11:37:56.448Z,2.07
2023-03-25T11:40:23.156Z,1.83
2023-03-25T11:42:54.800Z,2.23
2023-03-25T11:45:23.216Z,2.10
2023-03-25T11:47:50.944Z,1.87
2023-03-25T11:50:22.132Z,1.70
2023-03-25T11:52:52.606Z,2.00
2023-03-25T11:55:24.437Z,1.90
2023-03-25T11:57:53.705Z,1.80
2023-03-25T12:00:39.705Z,1.87
2023-03-25T12:03:27.550Z,2.07
2023-03-25T12:06:07.667Z,2.10
2023-03-25T12:08:42.914Z,1.60
2023-03-25T12:11:25.005Z,1.70
2023-03-25T12:14:15.887Z,1.67
2023-03-25T12:17:08.556Z,2.00
2023-03-25T12:20:11.432Z,1.50
2023-03-25T12:23:14.826Z,2.10
2023-03-25T12:26:07.026Z,1.53
2023-03-25T12:28:42.168Z,1.63
2023-03-25T12:31:32.176Z,1.77
2023-03-25T12:34:16.610Z,2.20
2023-03-25T12:37:10.002Z,1.87
2023-03-25T12:40:17.861Z,1.20
2023-03-25T12:43:11.991Z,1.53
2023-03-25T12:45:41.883Z,1.33
2023-03-25T12:48:11.852Z,1.30
2023-03-25T12:51:08.967Z,1.57
2023-03-25T12:53:52.253Z,1.43
2023-03-25T12:56:44.530Z,1.80
2023-03-25T12:59:37.461Z,1.50
2023-03-25T13:02:22.815Z,1.17
2023-03-25T13:05:04.482Z,1.10
2023-03-25T13:07:43.171Z,1.20
2023-03-25T13:10:18.794Z,1.30
2023-03-25T13:12:48.244Z,1.50
2023-03-25T13:15:27.625Z,1.80
2023-03-25T13:18:19.808Z,1.80
2023-03-25T13:21:00.273Z,1.20
2023-03-25T13:23:28.974Z,1.30
2023-03-25T13:26:06.305Z,1.13
2023-03-25T13:28:58.261Z,0.90
2023-03-25T13:31:32.367Z,0.90
2023-03-25T13:34:41.549Z,1.00
2023-03-25T13:37:23.249Z,1.07
2023-03-25T13:40:11.763Z,1.60
2023-03-25T13:42:55.814Z,0.70
2023-03-25T13:45:24.298Z,1.40
2023-03-25T13:48:05.483Z,1.40
2023-03-25T13:50:33.460Z,0.90
2023-03-25T13:53:14.828Z,1.00
2023-03-25T13:55:48.124Z,1.23
2023-03-25T13:58:31.463Z,0.83
2023-03-25T14:01:28.905Z,1.03
2023-03-25T14:04:01.727Z,1.07
2023-03-25T14:07:21.188Z,0.73
2023-03-25T14:09:55.484Z,1.13
2023-03-25T14:12:32.964Z,0.80
2023-03-25T14:15:17.548Z,1.17
2023-03-25T14:17:50.226Z,0.83
2023-03-25T14:20:48.515Z,0.80
2023-03-25T14:23:20.917Z,0.90
2023-03-25T14:25:52.947Z,0.90
2023-03-25T14:28:55.561Z,0.67
2023-03-25T14:31:23.154Z,0.97
2023-03-25T14:34:04.670Z,0.80
2023-03-25T14:36:51.790Z,0.97
2023-03-25T14:39:24.365Z,1.00
2023-03-25T14:42:02.112Z,0.83
2023-03-25T14:44:32.884Z,0.90
2023-03-25T14:47:22.766Z,1.00
2023-03-25T14:50:02.838Z,0.90
2023-03-25T14:52:49.218Z,0.80
2023-03-25T14:55:26.528Z,0.90
2023-03-25T14:58:17.229Z,0.73
2023-03-25T15:01:05.698Z,0.70
2023-03-25T15:03:44.286Z,0.80
2023-03-25T15:06:16.560Z,0.70
2023-03-25T15:08:53.639Z,0.50
2023-03-25T15:11:31.335Z,0.60
2023-03-25T15:14:03.205Z,0.90
2023-03-25T15:16:48.272Z,0.70
2023-03-25T15:19:19.338Z,0.87
2023-03-25T15:21:58.114Z,1.23
2023-03-25T15:24:29.015Z,0.87
2023-03-25T15:26:58.208Z,1.00
2023-03-25T15:30:02.562Z,0.80
2023-03-25T15:32:54.116Z,0.73
2023-03-25T15:35:23.692Z,0.90
2023-03-25T15:38:18.069Z,0.60
2023-03-25T15:40:50.697Z,1.13
2023-03-25T15:43:23.272Z,0.80
2023-03-25T15:45:55.804Z,0.57
2023-03-25T15:48:28.492Z,0.83
2023-03-25T15:51:13.048Z,0.90
2023-03-25T15:53:47.261Z,0.60
2023-03-25T15:56:17.442Z,0.60
2023-03-25T15:59:06.977Z,0.83
2023-03-25T16:01:41.483Z,0.73
2023-03-25T16:04:37.459Z,0.50
2023-03-25T16:07:06.894Z,0.80
2023-03-25T16:09:41.481Z,0.70
2023-03-25T16:12:10.297Z,0.80
2023-03-25T16:14:39.316Z,0.77
2023-03-25T16:17:07.698Z,0.60
2023-03-25T16:19:52.064Z,0.60
2023-03-25T16:22:27.508Z,0.70
2023-03-25T16:24:56.927Z,0.83
2023-03-25T16:27:30.562Z,0.67
2023-03-25T16:29:57.590Z,0.70
2023-03-25T16:32:30.939Z,0.50
2023-03-25T16:34:57.805Z,1.03
2023-03-25T16:37:25.679Z,1.10
2023-03-25T16:39:57.372Z,0.73
2023-03-25T16:42:35.483Z,0.70
2023-03-25T16:45:03.398Z,0.73
2023-03-25T16:47:33.643Z,0.87
2023-03-25T16:50:02.536Z,0.53
2023-03-25T16:52:33.064Z,0.87
2023-03-25T16:55:02.567Z,0.57
2023-03-25T16:57:33.560Z,0.50
2023-03-25T17:00:17.110Z,0.57
2023-03-25T17:02:44.989Z,1.10
2023-03-25T17:05:27.046Z,0.50
2023-03-25T17:08:04.053Z,0.70
2023-03-25T17:10:32.848Z,0.60
2023-03-25T17:13:04.360Z,0.50
2023-03-25T17:15:35.590Z,0.80
2023-03-25T17:18:06.773Z,0.60
2023-03-25T17:20:39.300Z,0.70
2023-03-25T17:23:18.241Z,0.90
2023-03-25T17:26:09.624Z,0.80
2023-03-25T17:28:38.120Z,1.00
2023-03-25T17:31:17.092Z,1.07
2023-03-25T17:33:49.557Z,0.60
2023-03-25T17:36:19.116Z,0.80
2023-03-25T17:38:48.521Z,0.70
2023-03-25T17:41:18.482Z,1.07
2023-03-25T17:43:51.226Z,0.80
2023-03-25T17:46:21.859Z,0.67
2023-03-25T17:48:50.682Z,0.80
2023-03-25T17:51:18.671Z,0.40
2023-03-25T17:53:45.479Z,0.90
2023-03-25T17:56:13.351Z,0.70
2023-03-25T17:58:40.261Z,0.73
2023-03-25T18:01:07.251Z,0.97
2023-03-25T18:03:35.439Z,0.67
2023-03-25T18:06:02.390Z,0.70
2023-03-25T18:08:29.772Z,0.70
2023-03-25T18:10:56.398Z,0.60
2023-03-25T18:13:27.254Z,0.60
2023-03-25T18:15:55.116Z,0.60
2023-03-25T18:18:24.853Z,0.57
2023-03-25T18:20:53.236Z,0.70
2023-03-25T18:23:20.417Z,0.60
2023-03-25T18:25:47.921Z,0.60
2023-03-25T18:28:15.676Z,0.60
2023-03-25T18:30:56.872Z,0.80
2023-03-25T18:33:23.830Z,0.50
2023-03-25T18:35:52.538Z,0.80
2023-03-25T18:38:24.472Z,0.67
2023-03-25T18:40:52.473Z,0.83
2023-03-25T18:43:19.594Z,0.87
2023-03-25T18:45:47.207Z,0.70
2023-03-25T18:48:17.529Z,0.60
2023-03-25T18:50:50.419Z,0.80
2023-03-25T18:53:17.138Z,0.60
2023-03-25T18:55:45.901Z,0.43
2023-03-25T18:58:17.996Z,0.60
2023-03-25T19:00:46.323Z,1.03
2023-03-25T19:03:14.349Z,0.70
2023-03-25T19:05:41.636Z,0.50
2023-03-25T19:08:17.097Z,0.77
2023-03-25T19:10:44.265Z,0.60
2023-03-25T19:13:11.544Z,0.60
2023-03-25T19:15:38.282Z,0.50
2023-03-25T19:18:05.074Z,0.70
2023-03-25T19:20:34.937Z,0.60
2023-03-25T19:23:03.075Z,0.63
2023-03-25T19:25:30.202Z,0.50
2023-03-25T19:27:56.908Z,0.53
2023-03-25T19:30:24.659Z,0.50
2023-03-25T19:32:57.148Z,0.60
2023-03-25T19:35:24.604Z,0.73
2023-03-25T19:37:51.280Z,0.40
2023-03-25T19:40:22.017Z,0.43
2023-03-25T19:42:49.664Z,0.40
2023-03-25T19:45:17.648Z,0.47
2023-03-25T19:47:45.784Z,0.43
2023-03-25T19:50:19.053Z,0.60
2023-03-25T19:52:49.885Z,0.60
2023-03-25T19:55:17.260Z,0.60
2023-03-25T19:57:44.853Z,0.90
2023-03-25T20:00:15.216Z,0.60
2023-03-25T20:02:43.617Z,0.60
2023-03-25T20:05:11.580Z,0.43
2023-03-25T20:07:42.868Z,0.50
2023-03-25T20:10:19.642Z,0.50
2023-03-25T20:12:47.993Z,0.60
2023-03-25T20:15:16.092Z,0.40
2023-03-25T20:17:42.792Z,0.50
2023-03-25T20:20:12.949Z,0.40
2023-03-25T20:22:40.714Z,0.40
2023-03-25T20:25:08.768Z,0.40
2023-03-25T20:27:35.925Z,0.70
2023-03-25T20:30:03.896Z,0.67
2023-03-25T20:32:40.019Z,0.60
2023-03-25T20:35:10.200Z,0.50
2023-03-25T20:37:38.651Z,0.50
2023-03-25T20:40:08.151Z,0.87
2023-03-25T20:42:34.943Z,0.70
2023-03-25T20:45:01.701Z,0.63
2023-03-25T20:47:29.028Z,0.60
2023-03-25T20:49:56.077Z,0.80
2023-03-25T20:52:22.784Z,0.50
2023-03-25T20:54:49.762Z,0.50
2023-03-25T20:57:16.552Z,0.70
2023-03-25T20:59:46.020Z,0.60
2023-03-25T21:02:24.028Z,0.50
2023-03-25T21:04:52.068Z,0.50
2023-03-25T21:07:19.489Z,0.57
2023-03-25T21:09:54.077Z,0.63
2023-03-25T21:12:27.156Z,0.70
2023-03-25T21:15:00.186Z,0.40
2023-03-25T21:17:28.004Z,0.73
2023-03-25T21:19:58.217Z,0.40
2023-03-25T21:22:24.947Z,0.70
2023-03-25T21:24:51.669Z,0.70
2023-03-25T21:27:18.493Z,0.60
2023-03-25T21:29:46.274Z,0.90
2023-03-25T21:32:13.846Z,0.50
2023-03-25T21:34:40.755Z,0.73
2023-03-25T21:37:07.721Z,0.70
2023-03-25T21:39:35.204Z,0.57
2023-03-25T21:42:10.213Z,0.50
2023-03-25T21:44:38.041Z,0.60
2023-03-25T21:47:08.571Z,0.83
2023-03-25T21:49:35.363Z,0.57
2023-03-25T21:52:02.141Z,0.70
2023-03-25T21:54:28.970Z,0.67
2023-03-25T21:56:55.838Z,0.60
2023-03-25T21:59:23.356Z,1.03
2023-03-25T22:01:52.670Z,0.70
2023-03-25T22:04:19.744Z,0.60
2023-03-25T22:06:46.424Z,0.53
2023-03-25T22:09:13.155Z,0.90
2023-03-25T22:11:39.921Z,0.57
2023-03-25T22:14:09.462Z,1.13
2023-03-25T22:16:36.414Z,0.60
2023-03-25T22:19:03.762Z,0.70
2023-03-25T22:21:34.141Z,0.60
2023-03-25T22:24:02.455Z,0.50
2023-03-25T22:26:30.957Z,1.13
2023-03-25T22:29:02.433Z,0.50
2023-03-25T22:31:39.390Z,0.50
2023-03-25T22:34:14.854Z,0.63
2023-03-25T22:36:50.165Z,0.70
2023-03-25T22:39:18.476Z,0.60
2023-03-25T22:41:45.675Z,0.47
2023-03-25T22:44:14.599Z,0.60
2023-03-25T22:46:41.275Z,0.43
2023-03-25T22:49:07.993Z,0.60
2023-03-25T22:51:34.731Z,0.57
2023-03-25T22:54:01.422Z,0.70
2023-03-25T22:56:33.786Z,0.90
2023-03-25T22:59:01.656Z,0.50
2023-03-25T23:01:28.721Z,0.70
2023-03-25T23:03:57.686Z,0.50
2023-03-25T23:06:26.321Z,0.57
2023-03-25T23:09:01.231Z,0.60
2023-03-25T23:11:30.295Z,0.63
2023-03-25T23:14:02.956Z,0.80
2023-03-25T23:16:31.342Z,0.90
2023-03-25T23:18:58.842Z,0.53
2023-03-25T23:21:28.855Z,0.67
2023-03-25T23:23:58.083Z,0.90
2023-03-25T23:26:34.392Z,0.80
2023-03-25T23:29:01.405Z,0.53
2023-03-25T23:31:33.612Z,0.57
2023-03-25T23:34:05.364Z,0.50
2023-03-25T23:36:36.830Z,0.60
2023-03-25T23:39:07.028Z,1.00
2023-03-25T23:41:34.647Z,0.77
2023-03-25T23:44:01.270Z,0.60
2023-03-25T23:46:28.402Z,0.77
2023-03-25T23:49:01.751Z,0.50
2023-03-25T23:51:32.896Z,0.60
2023-03-25T23:53:59.790Z,0.60
2023-03-25T23:56:26.325Z,0.50
2023-03-25T23:58:53.068Z,0.47
